createdAt,value
2023-02-11T00:00:18.193Z,56.15
2023-02-11T00:00:50.091Z,61.72
2023-02-11T00:01:32.983Z,60.75
2023-02-11T00:02:05.579Z,59.22
2023-02-11T00:02:37.339Z,61.05
2023-02-11T00:03:09.902Z,64.13
2023-02-11T00:03:41.634Z,71.65
2023-02-11T00:04:13.386Z,73.18
2023-02-11T00:04:45.103Z,64.80
2023-02-11T00:05:16.748Z,66.13
2023-02-11T00:06:00.903Z,65.15
2023-02-11T00:06:33.806Z,69.82
2023-02-11T00:07:05.498Z,70.18
2023-02-11T00:07:37.541Z,64.07
2023-02-11T00:08:09.175Z,67.53
2023-02-11T00:08:40.754Z,69.20
2023-02-11T00:09:12.454Z,71.03
2023-02-11T00:09:44.029Z,66.32
2023-02-11T00:10:15.636Z,70.65
2023-02-11T00:10:52.229Z,71.38
2023-02-11T00:11:31.333Z,70.30
2023-02-11T00:12:03.040Z,72.35
2023-02-11T00:12:38.330Z,70.85
2023-02-11T00:13:09.908Z,68.53
2023-02-11T00:13:42.348Z,68.80
2023-02-11T00:14:14.090Z,65.60
2023-02-11T00:14:45.709Z,72.22
2023-02-11T00:15:17.465Z,76.43
2023-02-11T00:15:49.922Z,71.68
2023-02-11T00:16:21.743Z,70.93
2023-02-11T00:16:53.359Z,67.97
2023-02-11T00:17:24.988Z,63.65
2023-02-11T00:17:56.579Z,67.28
2023-02-11T00:18:28.180Z,60.03
2023-02-11T00:19:01.099Z,60.42
2023-02-11T00:19:32.757Z,64.38
2023-02-11T00:20:07.860Z,65.13
2023-02-11T00:20:40.620Z,59.65
2023-02-11T00:21:15.297Z,57.85
2023-02-11T00:21:46.899Z,58.72
2023-02-11T00:22:18.974Z,66.00
2023-02-11T00:22:50.591Z,74.72
2023-02-11T00:23:22.165Z,75.82
2023-02-11T00:23:55.020Z,78.85
2023-02-11T00:24:26.708Z,81.28
2023-02-11T00:24:58.271Z,78.90
2023-02-11T00:25:29.898Z,75.30
2023-02-11T00:26:01.690Z,66.60
2023-02-11T00:26:35.210Z,66.88
2023-02-11T00:27:06.795Z,68.10
2023-02-11T00:27:38.483Z,68.25
2023-02-11T00:28:11.072Z,72.10
2023-02-11T00:28:43.201Z,70.07
2023-02-11T00:29:15.066Z,67.50
2023-02-11T00:29:46.785Z,67.55
2023-02-11T00:30:18.509Z,67.88
2023-02-11T00:31:01.679Z,64.80
2023-02-11T00:31:34.066Z,65.85
2023-02-11T00:32:06.447Z,68.03
2023-02-11T00:32:38.061Z,63.72
2023-02-11T00:33:09.769Z,63.72
2023-02-11T00:33:42.037Z,67.43
2023-02-11T00:34:13.973Z,65.25
2023-02-11T00:34:45.609Z,67.95
2023-02-11T00:35:17.435Z,66.68
2023-02-11T00:35:49.540Z,59.85
2023-02-11T00:36:24.458Z,61.85
2023-02-11T00:36:56.044Z,65.88
2023-02-11T00:37:27.938Z,55.05
2023-02-11T00:37:59.581Z,64.53
2023-02-11T00:38:31.238Z,63.08
2023-02-11T00:39:03.774Z,60.28
2023-02-11T00:39:35.497Z,57.67
2023-02-11T00:40:07.620Z,57.67
2023-02-11T00:40:39.316Z,60.10
2023-02-11T00:41:13.202Z,60.70
2023-02-11T00:41:44.805Z,62.85
2023-02-11T00:42:17.171Z,55.53
2023-02-11T00:42:48.814Z,59.35
2023-02-11T00:43:20.396Z,63.25
2023-02-11T00:43:52.689Z,61.20
2023-02-11T00:44:24.602Z,60.17
2023-02-11T00:44:56.208Z,57.88
2023-02-11T00:45:28.865Z,59.72
2023-02-11T00:46:00.466Z,59.22
2023-02-11T00:46:32.209Z,67.05
2023-02-11T00:47:03.883Z,77.95
2023-02-11T00:47:35.993Z,91.85
2023-02-11T00:48:07.606Z,86.13
2023-02-11T00:48:39.435Z,83.07
2023-02-11T00:49:11.451Z,81.57
2023-02-11T00:49:43.213Z,81.15
2023-02-11T00:50:14.946Z,78.90
2023-02-11T00:50:46.885Z,83.68
2023-02-11T00:51:18.515Z,77.65
2023-02-11T00:51:50.139Z,74.78
2023-02-11T00:52:21.757Z,69.50
2023-02-11T00:52:53.320Z,69.18
2023-02-11T00:53:25.324Z,70.93
2023-02-11T00:53:57.020Z,75.82
2023-02-11T00:54:30.040Z,72.47
2023-02-11T00:55:01.879Z,69.13
2023-02-11T00:55:34.007Z,64.45
2023-02-11T00:56:06.690Z,72.75
2023-02-11T00:56:38.398Z,74.90
2023-02-11T00:57:10.027Z,76.25
2023-02-11T00:57:41.635Z,69.80
2023-02-11T00:58:13.282Z,71.00
2023-02-11T00:58:45.025Z,76.82
2023-02-11T00:59:16.626Z,74.20
2023-02-11T00:59:48.219Z,71.25
2023-02-11T01:00:20.291Z,74.38
2023-02-11T01:00:53.449Z,70.80
2023-02-11T01:01:25.240Z,68.75
2023-02-11T01:01:56.953Z,73.20
2023-02-11T01:02:28.679Z,69.18
2023-02-11T01:03:00.411Z,69.22
2023-02-11T01:03:32.217Z,67.60
2023-02-11T01:04:04.023Z,68.45
2023-02-11T01:04:35.677Z,66.78
2023-02-11T01:05:08.047Z,67.68
2023-02-11T01:05:39.713Z,66.38
2023-02-11T01:06:11.475Z,62.92
2023-02-11T01:06:43.073Z,65.85
2023-02-11T01:07:14.759Z,60.45
2023-02-11T01:07:46.762Z,58.47
2023-02-11T01:08:18.504Z,57.90
2023-02-11T01:08:50.234Z,55.88
2023-02-11T01:09:21.899Z,62.88
2023-02-11T01:09:53.986Z,59.78
2023-02-11T01:10:25.824Z,60.08
2023-02-11T01:11:07.628Z,62.30
2023-02-11T01:11:39.299Z,59.72
2023-02-11T01:12:10.920Z,60.30
2023-02-11T01:12:42.598Z,59.60
2023-02-11T01:13:14.219Z,58.38
2023-02-11T01:13:47.505Z,53.35
2023-02-11T01:14:19.166Z,58.20
2023-02-11T01:14:51.210Z,58.92
2023-02-11T01:15:22.944Z,56.15
2023-02-11T01:15:55.666Z,52.85
2023-02-11T01:16:27.476Z,52.35
2023-02-11T01:16:59.118Z,50.92
2023-02-11T01:17:30.825Z,52.88
2023-02-11T01:18:02.472Z,55.58
2023-02-11T01:18:34.229Z,53.75
2023-02-11T01:19:06.343Z,58.15
2023-02-11T01:19:38.790Z,59.65
2023-02-11T01:20:20.647Z,57.47
2023-02-11T01:20:53.683Z,54.03
2023-02-11T01:21:25.850Z,53.17
2023-02-11T01:21:57.532Z,60.28
2023-02-11T01:22:29.148Z,61.63
2023-02-11T01:23:00.796Z,56.67
2023-02-11T01:23:32.446Z,60.28
2023-02-11T01:24:04.169Z,56.30
2023-02-11T01:24:35.822Z,60.92
2023-02-11T01:25:08.380Z,56.85
2023-02-11T01:25:40.039Z,56.13
2023-02-11T01:26:11.761Z,58.25
2023-02-11T01:26:43.372Z,60.40
2023-02-11T01:27:15.043Z,55.85
2023-02-11T01:27:46.644Z,59.85
2023-02-11T01:28:21.927Z,57.53
2023-02-11T01:28:53.567Z,59.50
2023-02-11T01:29:25.515Z,58.45
2023-02-11T01:29:57.194Z,62.00
2023-02-11T01:30:28.860Z,62.30
2023-02-11T01:31:01.432Z,63.38
2023-02-11T01:31:33.300Z,60.33
2023-02-11T01:32:05.225Z,56.13
2023-02-11T01:32:36.887Z,58.35
2023-02-11T01:33:08.555Z,62.03
2023-02-11T01:33:40.304Z,64.95
2023-02-11T01:34:11.967Z,61.05
2023-02-11T01:34:43.655Z,68.25
2023-02-11T01:35:15.271Z,61.20
2023-02-11T01:35:47.647Z,58.92
2023-02-11T01:36:19.491Z,55.90
2023-02-11T01:36:51.116Z,56.63
2023-02-11T01:37:22.817Z,61.10
2023-02-11T01:37:54.435Z,55.92
2023-02-11T01:38:26.651Z,58.75
2023-02-11T01:38:58.425Z,58.63
2023-02-11T01:39:34.068Z,56.70
2023-02-11T01:40:08.056Z,55.83
2023-02-11T01:40:39.980Z,58.50
2023-02-11T01:41:14.623Z,56.30
2023-02-11T01:41:46.183Z,58.72
2023-02-11T01:42:20.170Z,58.47
2023-02-11T01:42:51.759Z,56.08
2023-02-11T01:43:24.698Z,57.85
2023-02-11T01:43:56.363Z,68.65
2023-02-11T01:44:35.500Z,64.65
2023-02-11T01:45:40.782Z,61.92
2023-02-11T01:46:34.120Z,56.58
2023-02-11T01:47:06.664Z,59.70
2023-02-11T01:47:38.258Z,50.17
2023-02-11T01:48:12.942Z,54.67
2023-02-11T01:48:47.853Z,50.90
2023-02-11T01:49:33.413Z,55.75
2023-02-11T01:50:05.265Z,53.20
2023-02-11T01:50:38.386Z,49.97
2023-02-11T01:51:20.572Z,53.78
2023-02-11T01:52:10.807Z,54.28
2023-02-11T01:52:43.209Z,53.42
2023-02-11T01:53:34.091Z,51.45
2023-02-11T01:54:25.899Z,52.63
2023-02-11T01:55:19.622Z,56.65
2023-02-11T01:56:11.834Z,58.00
2023-02-11T01:57:07.622Z,55.92
2023-02-11T01:57:43.372Z,47.70
2023-02-11T01:58:15.094Z,59.85
2023-02-11T01:58:48.070Z,60.60
2023-02-11T01:59:36.642Z,60.22
2023-02-11T02:00:11.945Z,58.60
2023-02-11T02:00:44.100Z,59.75
2023-02-11T02:01:19.391Z,59.10
2023-02-11T02:01:57.341Z,59.58
2023-02-11T02:02:52.588Z,59.67
2023-02-11T02:03:24.982Z,66.07
2023-02-11T02:04:01.798Z,63.90
2023-02-11T02:04:42.302Z,68.97
2023-02-11T02:05:31.588Z,65.95
2023-02-11T02:06:28.626Z,61.13
2023-02-11T02:07:06.575Z,71.07
2023-02-11T02:07:48.360Z,63.55
2023-02-11T02:08:27.905Z,62.55
2023-02-11T02:09:06.947Z,68.95
2023-02-11T02:09:43.247Z,69.03
2023-02-11T02:10:19.157Z,64.10
2023-02-11T02:10:56.412Z,64.80
2023-02-11T02:11:28.344Z,65.38
2023-02-11T02:12:00.238Z,71.82
2023-02-11T02:12:31.886Z,64.55
2023-02-11T02:13:03.820Z,66.43
2023-02-11T02:13:36.068Z,68.65
2023-02-11T02:14:07.765Z,66.40
2023-02-11T02:14:41.419Z,71.45
2023-02-11T02:15:32.025Z,59.75
2023-02-11T02:16:09.800Z,52.58
2023-02-11T02:16:41.836Z,49.30
2023-02-11T02:17:29.136Z,56.20
2023-02-11T02:18:22.972Z,52.15
2023-02-11T02:19:12.243Z,65.28
2023-02-11T02:20:25.774Z,61.70
2023-02-11T02:21:19.004Z,60.00
2023-02-11T02:22:22.584Z,59.92
2023-02-11T02:23:11.695Z,67.90
2023-02-11T02:24:22.164Z,66.28
2023-02-11T02:25:01.076Z,61.97
2023-02-11T02:25:44.741Z,68.72
2023-02-11T02:26:37.614Z,67.55
2023-02-11T02:27:25.056Z,61.00
2023-02-11T02:28:18.049Z,66.30
2023-02-11T02:28:58.222Z,74.95
2023-02-11T02:29:56.938Z,73.05
2023-02-11T02:30:46.294Z,60.17
2023-02-11T02:31:23.812Z,72.97
2023-02-11T02:32:10.820Z,68.57
2023-02-11T02:32:45.223Z,64.57
2023-02-11T02:33:34.132Z,66.53
2023-02-11T02:34:07.948Z,68.53
2023-02-11T02:35:04.937Z,72.15
2023-02-11T02:36:09.427Z,70.38
2023-02-11T02:36:52.041Z,74.68
2023-02-11T02:38:01.632Z,66.18
2023-02-11T02:38:57.967Z,66.40
2023-02-11T02:39:33.545Z,70.00
2023-02-11T02:40:11.794Z,73.22
2023-02-11T02:40:48.722Z,76.70
2023-02-11T02:41:25.090Z,71.43
2023-02-11T02:41:57.642Z,72.65
2023-02-11T02:42:29.442Z,70.95
2023-02-11T02:43:02.995Z,68.93
2023-02-11T02:43:37.204Z,67.60
2023-02-11T02:44:09.353Z,67.32
2023-02-11T02:44:40.979Z,66.25
2023-02-11T02:45:13.814Z,68.88
2023-02-11T02:45:45.394Z,69.05
2023-02-11T02:46:24.084Z,64.40
2023-02-11T02:46:55.829Z,71.45
2023-02-11T02:47:27.484Z,68.18
2023-02-11T02:47:59.089Z,67.68
2023-02-11T02:48:37.491Z,70.30
2023-02-11T02:49:16.557Z,64.80
2023-02-11T02:49:48.136Z,70.70
2023-02-11T02:50:30.138Z,69.55
2023-02-11T02:51:43.198Z,81.03
2023-02-11T02:52:23.323Z,71.90
2023-02-11T02:53:12.651Z,71.00
2023-02-11T02:54:08.299Z,69.60
2023-02-11T02:55:02.864Z,64.38
2023-02-11T02:56:01.661Z,64.72
2023-02-11T02:56:55.873Z,68.32
2023-02-11T02:57:36.575Z,67.13
2023-02-11T02:58:17.443Z,71.25
2023-02-11T02:59:02.476Z,67.47
2023-02-11T02:59:46.177Z,73.18
2023-02-11T03:00:23.781Z,75.20
2023-02-11T03:01:33.245Z,76.88
2023-02-11T03:02:26.680Z,70.37
2023-02-11T03:03:10.273Z,69.55
2023-02-11T03:04:10.824Z,67.65
2023-02-11T03:05:02.037Z,64.57
2023-02-11T03:05:47.073Z,65.78
2023-02-11T03:06:38.854Z,69.88
2023-02-11T03:07:48.627Z,68.68
2023-02-11T03:08:52.133Z,66.60
2023-02-11T03:10:01.959Z,70.90
2023-02-11T03:10:38.438Z,64.30
2023-02-11T03:11:12.014Z,65.05
2023-02-11T03:11:43.745Z,70.32
2023-02-11T03:12:16.633Z,81.22
2023-02-11T03:12:49.733Z,79.07
2023-02-11T03:13:27.321Z,76.32
2023-02-11T03:14:03.250Z,75.72
2023-02-11T03:14:36.287Z,76.05
2023-02-11T03:15:09.487Z,73.03
2023-02-11T03:15:50.624Z,73.38
2023-02-11T03:16:26.863Z,68.43
2023-02-11T03:17:04.350Z,72.45
2023-02-11T03:17:39.222Z,74.93
2023-02-11T03:18:15.649Z,75.80
2023-02-11T03:18:56.512Z,74.95
2023-02-11T03:19:37.604Z,68.70
2023-02-11T03:20:13.069Z,71.43
2023-02-11T03:20:48.875Z,69.15
2023-02-11T03:21:21.279Z,73.03
2023-02-11T03:21:54.402Z,73.32
2023-02-11T03:22:33.452Z,83.07
2023-02-11T03:23:23.792Z,74.35
2023-02-11T03:24:00.572Z,71.53
2023-02-11T03:24:37.113Z,71.85
2023-02-11T03:25:09.692Z,74.07
2023-02-11T03:25:58.683Z,74.70
2023-02-11T03:26:43.234Z,73.60
2023-02-11T03:27:47.243Z,67.50
2023-02-11T03:28:35.292Z,66.57
2023-02-11T03:29:27.231Z,64.20
2023-02-11T03:30:04.188Z,67.32
2023-02-11T03:30:44.064Z,69.70
2023-02-11T03:31:36.969Z,63.53
2023-02-11T03:32:25.228Z,70.63
2023-02-11T03:33:26.538Z,67.55
2023-02-11T03:34:16.399Z,65.70
2023-02-11T03:34:51.072Z,64.53
2023-02-11T03:35:32.872Z,69.63
2023-02-11T03:36:09.067Z,69.53
2023-02-11T03:36:59.925Z,71.75
2023-02-11T03:37:54.574Z,66.25
2023-02-11T03:38:32.462Z,67.33
2023-02-11T03:39:05.713Z,65.63
2023-02-11T03:39:50.550Z,69.55
2023-02-11T03:40:40.121Z,77.20
2023-02-11T03:41:15.102Z,76.72
2023-02-11T03:41:49.010Z,70.65
2023-02-11T03:42:24.664Z,72.47
2023-02-11T03:43:21.438Z,67.72
2023-02-11T03:43:58.393Z,68.15
2023-02-11T03:44:36.633Z,72.72
2023-02-11T03:45:11.307Z,64.75
2023-02-11T03:45:44.545Z,69.53
2023-02-11T03:46:19.687Z,67.85
2023-02-11T03:46:52.337Z,74.65
2023-02-11T03:47:27.584Z,72.50
2023-02-11T03:48:27.993Z,68.68
2023-02-11T03:49:04.997Z,69.00
2023-02-11T03:49:39.741Z,73.80
2023-02-11T03:50:14.730Z,77.03
2023-02-11T03:50:48.631Z,73.07
2023-02-11T03:51:22.163Z,77.07
2023-02-11T03:51:55.903Z,74.75
2023-02-11T03:52:28.203Z,78.38
2023-02-11T03:53:02.820Z,70.82
2023-02-11T03:53:34.882Z,73.45
2023-02-11T03:54:13.100Z,73.35
2023-02-11T03:54:47.337Z,72.07
2023-02-11T03:55:21.190Z,70.45
2023-02-11T03:55:56.772Z,74.57
2023-02-11T03:56:32.416Z,70.10
2023-02-11T03:57:04.558Z,72.07
2023-02-11T03:57:36.405Z,73.07
2023-02-11T03:58:09.059Z,65.60
2023-02-11T03:58:40.804Z,72.88
2023-02-11T03:59:12.536Z,69.97
2023-02-11T03:59:59.047Z,71.38
2023-02-11T04:00:32.689Z,69.47
2023-02-11T04:01:05.286Z,71.25
2023-02-11T04:01:36.958Z,69.25
2023-02-11T04:02:08.546Z,72.05
2023-02-11T04:02:41.617Z,75.25
2023-02-11T04:03:13.719Z,77.90
2023-02-11T04:03:45.355Z,70.07
2023-02-11T04:04:17.376Z,73.55
2023-02-11T04:04:49.006Z,76.55
2023-02-11T04:05:21.009Z,74.70
2023-02-11T04:05:52.734Z,75.47
2023-02-11T04:06:24.520Z,75.35
2023-02-11T04:06:56.101Z,78.97
2023-02-11T04:07:27.846Z,70.90
2023-02-11T04:07:59.462Z,77.25
2023-02-11T04:08:32.059Z,76.90
2023-02-11T04:09:03.860Z,81.45
2023-02-11T04:09:36.877Z,75.70
2023-02-11T04:10:09.083Z,71.78
2023-02-11T04:10:40.821Z,76.82
2023-02-11T04:11:12.416Z,75.78
2023-02-11T04:11:44.043Z,76.97
2023-02-11T04:12:15.663Z,72.80
2023-02-11T04:12:47.290Z,73.85
2023-02-11T04:13:18.868Z,73.47
2023-02-11T04:13:50.577Z,75.07
2023-02-11T04:14:22.143Z,78.18
2023-02-11T04:14:53.761Z,73.03
2023-02-11T04:15:25.693Z,79.47
2023-02-11T04:15:57.414Z,90.97
2023-02-11T04:16:30.909Z,109.68
2023-02-11T04:17:02.877Z,89.22
2023-02-11T04:17:34.928Z,77.20
2023-02-11T04:18:06.817Z,84.78
2023-02-11T04:18:38.455Z,82.53
2023-02-11T04:19:10.155Z,74.32
2023-02-11T04:19:42.014Z,86.47
2023-02-11T04:20:13.786Z,80.65
2023-02-11T04:20:45.510Z,77.45
2023-02-11T04:21:17.140Z,82.53
2023-02-11T04:21:48.834Z,76.47
2023-02-11T04:22:20.461Z,72.30
2023-02-11T04:22:52.072Z,73.03
2023-02-11T04:23:23.678Z,75.80
2023-02-11T04:23:55.251Z,78.65
2023-02-11T04:24:26.996Z,71.63
2023-02-11T04:24:58.723Z,72.68
2023-02-11T04:25:30.514Z,72.57
2023-02-11T04:26:02.231Z,68.32
2023-02-11T04:26:33.801Z,69.68
2023-02-11T04:27:05.504Z,71.38
2023-02-11T04:27:37.384Z,71.20
2023-02-11T04:28:09.053Z,66.78
2023-02-11T04:28:40.798Z,68.70
2023-02-11T04:29:12.518Z,70.68
2023-02-11T04:29:44.094Z,72.28
2023-02-11T04:30:15.682Z,73.55
2023-02-11T04:30:48.915Z,73.00
2023-02-11T04:31:20.671Z,76.88
2023-02-11T04:31:52.621Z,70.40
2023-02-11T04:32:24.308Z,71.40
2023-02-11T04:32:56.068Z,71.10
2023-02-11T04:33:27.843Z,73.13
2023-02-11T04:33:59.429Z,74.10
2023-02-11T04:34:31.388Z,73.15
2023-02-11T04:35:03.669Z,68.63
2023-02-11T04:35:35.274Z,70.57
2023-02-11T04:36:07.344Z,66.20
2023-02-11T04:36:38.966Z,70.40
2023-02-11T04:37:10.538Z,68.25
2023-02-11T04:37:42.108Z,77.25
2023-02-11T04:38:14.362Z,70.53
2023-02-11T04:38:45.953Z,70.95
2023-02-11T04:39:17.520Z,75.28
2023-02-11T04:39:49.137Z,71.13
2023-02-11T04:40:20.799Z,70.18
2023-02-11T04:40:52.455Z,71.18
2023-02-11T04:41:24.053Z,71.38
2023-02-11T04:41:55.703Z,69.72
2023-02-11T04:42:27.821Z,69.70
2023-02-11T04:42:59.470Z,73.85
2023-02-11T04:43:31.056Z,74.90
2023-02-11T04:44:02.636Z,67.75
2023-02-11T04:44:34.378Z,68.53
2023-02-11T04:45:07.877Z,72.07
2023-02-11T04:45:39.510Z,70.47
2023-02-11T04:46:11.357Z,70.50
2023-02-11T04:46:42.993Z,73.38
2023-02-11T04:47:15.593Z,77.82
2023-02-11T04:47:47.232Z,74.55
2023-02-11T04:48:18.846Z,70.82
2023-02-11T04:48:50.596Z,72.22
2023-02-11T04:49:22.185Z,76.07
2023-02-11T04:49:53.862Z,70.40
2023-02-11T04:50:25.724Z,68.47
2023-02-11T04:50:57.370Z,69.65
2023-02-11T04:51:29.030Z,74.45
2023-02-11T04:52:00.642Z,64.68
2023-02-11T04:52:32.296Z,70.00
2023-02-11T04:53:03.871Z,73.57
2023-02-11T04:53:35.522Z,68.78
2023-02-11T04:54:07.239Z,70.80
2023-02-11T04:54:39.068Z,70.07
2023-02-11T04:55:10.700Z,72.25
2023-02-11T04:55:42.336Z,73.35
2023-02-11T04:56:14.178Z,70.72
2023-02-11T04:56:46.036Z,74.38
2023-02-11T04:57:17.686Z,72.03
2023-02-11T04:57:49.305Z,68.55
2023-02-11T04:58:21.162Z,78.70
2023-02-11T04:58:52.772Z,82.97
2023-02-11T04:59:24.853Z,81.22
2023-02-11T04:59:56.449Z,81.05
2023-02-11T05:00:28.057Z,80.03
2023-02-11T05:01:10.773Z,79.03
2023-02-11T05:01:42.878Z,76.90
2023-02-11T05:02:14.550Z,71.53
2023-02-11T05:02:46.156Z,71.00
2023-02-11T05:03:17.954Z,70.10
2023-02-11T05:03:49.644Z,74.00
2023-02-11T05:04:21.300Z,73.72
2023-02-11T05:04:52.984Z,65.20
2023-02-11T05:05:24.690Z,74.68
2023-02-11T05:05:56.418Z,72.38
2023-02-11T05:06:28.091Z,73.15
2023-02-11T05:06:59.707Z,72.63
2023-02-11T05:07:31.419Z,70.65
2023-02-11T05:08:03.092Z,75.50
2023-02-11T05:08:34.737Z,69.40
2023-02-11T05:09:06.462Z,72.97
2023-02-11T05:09:38.049Z,75.18
2023-02-11T05:10:09.775Z,69.82
2023-02-11T05:10:47.168Z,67.03
2023-02-11T05:11:22.143Z,68.60
2023-02-11T05:11:53.758Z,69.82
2023-02-11T05:12:25.436Z,69.60
2023-02-11T05:12:57.017Z,69.43
2023-02-11T05:13:29.347Z,66.93
2023-02-11T05:14:01.361Z,69.10
2023-02-11T05:14:33.403Z,70.88
2023-02-11T05:15:05.532Z,71.07
2023-02-11T05:15:37.309Z,67.97
2023-02-11T05:16:09.266Z,72.70
2023-02-11T05:16:40.893Z,68.30
2023-02-11T05:17:12.495Z,63.60
2023-02-11T05:17:44.087Z,64.55
2023-02-11T05:18:15.952Z,69.40
2023-02-11T05:18:47.641Z,70.35
2023-02-11T05:19:19.489Z,70.60
2023-02-11T05:19:51.099Z,75.03
2023-02-11T05:20:22.779Z,71.35
2023-02-11T05:20:54.392Z,67.28
2023-02-11T05:21:26.395Z,79.25
2023-02-11T05:22:03.011Z,71.40
2023-02-11T05:22:35.210Z,71.28
2023-02-11T05:23:06.900Z,69.43
2023-02-11T05:23:39.816Z,69.07
2023-02-11T05:24:11.399Z,67.70
2023-02-11T05:24:43.024Z,64.18
2023-02-11T05:25:14.782Z,72.38
2023-02-11T05:25:46.371Z,69.95
2023-02-11T05:26:18.406Z,69.72
2023-02-11T05:26:50.151Z,75.68
2023-02-11T05:27:21.770Z,70.15
2023-02-11T05:27:53.383Z,71.47
2023-02-11T05:28:25.055Z,70.25
2023-02-11T05:28:56.773Z,67.65
2023-02-11T05:29:28.659Z,65.53
2023-02-11T05:30:00.282Z,70.57
2023-02-11T05:30:32.077Z,70.53
2023-02-11T05:31:04.300Z,70.45
2023-02-11T05:31:35.961Z,67.88
2023-02-11T05:32:09.079Z,68.38
2023-02-11T05:32:40.702Z,67.90
2023-02-11T05:33:12.333Z,68.15
2023-02-11T05:33:44.039Z,67.68
2023-02-11T05:34:15.686Z,65.53
2023-02-11T05:34:47.296Z,70.40
2023-02-11T05:35:19.050Z,71.60
2023-02-11T05:35:50.980Z,73.35
2023-02-11T05:36:22.784Z,71.53
2023-02-11T05:36:54.422Z,67.50
2023-02-11T05:37:26.166Z,70.63
2023-02-11T05:37:57.881Z,74.97
2023-02-11T05:38:29.530Z,72.72
2023-02-11T05:39:01.144Z,68.60
2023-02-11T05:39:32.775Z,68.90
2023-02-11T05:40:05.269Z,72.75
2023-02-11T05:40:37.262Z,77.15
2023-02-11T05:41:09.526Z,74.60
2023-02-11T05:41:41.099Z,75.97
2023-02-11T05:42:13.931Z,73.50
2023-02-11T05:42:45.605Z,75.70
2023-02-11T05:43:17.260Z,70.03
2023-02-11T05:43:52.693Z,68.30
2023-02-11T05:44:24.515Z,76.10
2023-02-11T05:44:56.114Z,71.57
2023-02-11T05:45:28.275Z,82.35
2023-02-11T05:45:59.905Z,90.63
2023-02-11T05:46:31.540Z,99.55
2023-02-11T05:47:03.435Z,107.03
2023-02-11T05:47:35.217Z,111.57
2023-02-11T05:48:06.922Z,93.68
2023-02-11T05:48:38.496Z,112.32
2023-02-11T05:49:10.154Z,91.70
2023-02-11T05:49:41.871Z,75.75
2023-02-11T05:50:13.473Z,79.70
2023-02-11T05:50:45.406Z,95.00
2023-02-11T05:51:17.095Z,102.45
2023-02-11T05:51:49.059Z,96.18
2023-02-11T05:52:21.721Z,78.10
2023-02-11T05:52:53.354Z,81.28
2023-02-11T05:53:25.126Z,89.45
2023-02-11T05:53:56.883Z,81.93
2023-02-11T05:54:28.459Z,85.80
2023-02-11T05:55:00.097Z,92.32
2023-02-11T05:55:31.825Z,88.88
2023-02-11T05:56:03.620Z,83.95
2023-02-11T05:56:35.223Z,81.85
2023-02-11T05:57:06.901Z,74.78
2023-02-11T05:57:38.588Z,81.60
2023-02-11T05:58:10.355Z,72.43
2023-02-11T05:58:42.314Z,68.63
2023-02-11T05:59:14.983Z,72.78
2023-02-11T05:59:46.574Z,78.53
2023-02-11T06:00:18.391Z,108.60
2023-02-11T06:00:50.146Z,107.38
2023-02-11T06:01:21.786Z,108.90
2023-02-11T06:01:53.411Z,106.03
2023-02-11T06:02:25.052Z,103.78
2023-02-11T06:02:56.716Z,104.60
2023-02-11T06:03:28.465Z,96.95
2023-02-11T06:04:00.262Z,92.65
2023-02-11T06:04:31.934Z,89.25
2023-02-11T06:05:03.594Z,90.10
2023-02-11T06:05:35.237Z,78.78
2023-02-11T06:06:13.000Z,78.00
2023-02-11T06:06:44.615Z,83.53
2023-02-11T06:07:17.496Z,90.90
2023-02-11T06:07:49.108Z,82.57
2023-02-11T06:08:20.708Z,83.72
2023-02-11T06:08:52.351Z,88.50
2023-02-11T06:09:24.015Z,80.70
2023-02-11T06:09:55.681Z,76.75
2023-02-11T06:10:27.652Z,76.22
2023-02-11T06:10:59.275Z,77.72
2023-02-11T06:11:30.914Z,74.35
2023-02-11T06:12:02.546Z,76.30
2023-02-11T06:12:34.380Z,70.75
2023-02-11T06:13:05.959Z,70.38
2023-02-11T06:13:37.606Z,72.93
2023-02-11T06:14:10.015Z,72.80
2023-02-11T06:14:42.119Z,69.80
2023-02-11T06:15:13.778Z,82.68
2023-02-11T06:15:45.816Z,71.15
2023-02-11T06:16:17.486Z,77.90
2023-02-11T06:16:49.207Z,78.72
2023-02-11T06:17:20.918Z,75.85
2023-02-11T06:17:52.570Z,81.22
2023-02-11T06:18:24.318Z,77.63
2023-02-11T06:18:56.009Z,80.15
2023-02-11T06:19:27.681Z,74.72
2023-02-11T06:20:02.923Z,76.78
2023-02-11T06:20:34.873Z,74.63
2023-02-11T06:21:08.358Z,74.63
2023-02-11T06:21:44.162Z,77.28
2023-02-11T06:22:16.002Z,71.30
2023-02-11T06:22:47.611Z,70.97
2023-02-11T06:23:19.762Z,67.93
2023-02-11T06:23:51.338Z,72.40
2023-02-11T06:24:47.653Z,74.40
2023-02-11T06:25:15.217Z,87.80
2023-02-11T06:25:46.927Z,74.93
2023-02-11T06:26:21.345Z,79.25
2023-02-11T06:26:52.979Z,75.60
2023-02-11T06:27:24.701Z,81.28
2023-02-11T06:27:56.409Z,80.05
2023-02-11T06:28:28.916Z,77.70
2023-02-11T06:29:00.985Z,78.95
2023-02-11T06:29:32.630Z,90.95
2023-02-11T06:30:05.628Z,79.80
2023-02-11T06:30:37.819Z,82.95
2023-02-11T06:31:10.060Z,88.15
2023-02-11T06:31:41.838Z,90.25
2023-02-11T06:32:37.016Z,84.72
2023-02-11T06:33:05.697Z,83.97
2023-02-11T06:33:38.541Z,84.20
2023-02-11T06:34:10.751Z,80.35
2023-02-11T06:34:42.312Z,84.30
2023-02-11T06:35:14.881Z,88.18
2023-02-11T06:35:46.665Z,88.88
2023-02-11T06:36:20.852Z,90.65
2023-02-11T06:36:52.456Z,94.53
2023-02-11T06:37:24.092Z,91.88
2023-02-11T06:37:55.781Z,86.63
2023-02-11T06:38:27.402Z,88.68
2023-02-11T06:38:59.305Z,90.07
2023-02-11T06:39:30.927Z,88.00
2023-02-11T06:40:02.518Z,89.57
2023-02-11T06:40:34.171Z,86.78
2023-02-11T06:41:05.817Z,84.70
2023-02-11T06:41:37.900Z,82.80
2023-02-11T06:42:10.088Z,76.82
2023-02-11T06:42:42.029Z,76.28
2023-02-11T06:43:13.633Z,77.13
2023-02-11T06:43:45.271Z,78.55
2023-02-11T06:44:17.162Z,81.18
2023-02-11T06:44:48.729Z,81.57
2023-02-11T06:45:20.711Z,76.63
2023-02-11T06:45:54.504Z,85.88
2023-02-11T06:46:26.551Z,78.43
2023-02-11T06:46:58.305Z,77.75
2023-02-11T06:47:29.936Z,81.75
2023-02-11T06:48:01.560Z,76.70
2023-02-11T06:48:33.672Z,83.05
2023-02-11T06:49:05.285Z,73.65
2023-02-11T06:49:37.053Z,79.60
2023-02-11T06:50:12.119Z,74.60
2023-02-11T06:50:43.731Z,76.22
2023-02-11T06:51:17.359Z,74.93
2023-02-11T06:51:48.965Z,70.53
2023-02-11T06:52:20.573Z,69.93
2023-02-11T06:52:52.303Z,72.85
2023-02-11T06:53:23.995Z,81.68
2023-02-11T06:53:55.644Z,84.57
2023-02-11T06:54:27.315Z,72.53
2023-02-11T06:54:58.880Z,81.93
2023-02-11T06:55:30.552Z,85.75
2023-02-11T06:56:07.573Z,80.05
2023-02-11T06:56:42.662Z,79.47
2023-02-11T06:57:14.256Z,75.03
2023-02-11T06:57:45.872Z,80.00
2023-02-11T06:58:17.490Z,74.72
2023-02-11T06:58:56.080Z,80.00
2023-02-11T06:59:27.739Z,79.57
2023-02-11T06:59:59.545Z,73.57
2023-02-11T07:00:31.192Z,70.25
2023-02-11T07:01:07.816Z,69.05
2023-02-11T07:01:39.468Z,71.38
2023-02-11T07:02:11.270Z,71.20
2023-02-11T07:02:43.042Z,73.18
2023-02-11T07:03:14.695Z,74.20
2023-02-11T07:03:47.145Z,70.88
2023-02-11T07:04:19.433Z,66.03
2023-02-11T07:04:51.049Z,68.13
2023-02-11T07:05:22.732Z,66.22
2023-02-11T07:05:54.299Z,77.70
2023-02-11T07:06:28.101Z,68.95
2023-02-11T07:06:59.860Z,72.18
2023-02-11T07:07:34.130Z,73.07
2023-02-11T07:08:06.145Z,70.15
2023-02-11T07:08:38.553Z,67.25
2023-02-11T07:09:10.249Z,70.45
2023-02-11T07:09:41.991Z,73.88
2023-02-11T07:10:13.665Z,74.45
2023-02-11T07:10:45.281Z,68.32
2023-02-11T07:11:20.624Z,75.30
2023-02-11T07:11:52.232Z,79.15
2023-02-11T07:12:23.895Z,76.90
2023-02-11T07:12:58.382Z,80.00
2023-02-11T07:13:30.321Z,75.30
2023-02-11T07:14:08.491Z,74.13
2023-02-11T07:14:40.446Z,67.60
2023-02-11T07:15:12.334Z,68.40
2023-02-11T07:15:44.120Z,73.15
2023-02-11T07:16:18.184Z,70.05
2023-02-11T07:16:49.782Z,70.60
2023-02-11T07:17:21.401Z,75.63
2023-02-11T07:17:53.045Z,72.97
2023-02-11T07:18:24.738Z,71.88
2023-02-11T07:18:56.313Z,71.72
2023-02-11T07:19:27.923Z,73.53
2023-02-11T07:19:59.531Z,73.38
2023-02-11T07:20:31.104Z,71.82
2023-02-11T07:21:10.652Z,64.85
2023-02-11T07:21:42.228Z,70.32
2023-02-11T07:22:13.917Z,67.45
2023-02-11T07:22:45.506Z,66.10
2023-02-11T07:23:17.154Z,68.18
2023-02-11T07:23:49.063Z,73.75
2023-02-11T07:24:20.836Z,67.07
2023-02-11T07:24:52.448Z,68.53
2023-02-11T07:25:24.083Z,69.47
2023-02-11T07:25:55.807Z,75.22
2023-02-11T07:26:29.058Z,69.05
2023-02-11T07:27:00.691Z,76.45